createdAt,value
2018-12-02T00:01:38.917Z,8.50
2018-12-02T00:04:09.668Z,8.50
2018-12-02T00:06:40.619Z,8.50
2018-12-02T00:09:11.205Z,8.50
2018-12-02T00:11:41.975Z,8.50
2018-12-02T00:14:12.871Z,8.50
2018-12-02T00:16:43.472Z,8.50
2018-12-02T00:19:14.113Z,8.50
2018-12-02T00:21:44.699Z,8.50
2018-12-02T00:24:15.426Z,8.40
2018-12-02T00:26:46.127Z,8.50
2018-12-02T00:29:16.783Z,8.50
2018-12-02T00:31:47.614Z,8.50
2018-12-02T00:34:18.252Z,8.40
2018-12-02T00:36:48.831Z,8.50
2018-12-02T00:39:19.316Z,8.50
2018-12-02T00:41:50.362Z,8.50
2018-12-02T00:44:20.954Z,8.50
2018-12-02T00:46:51.679Z,8.50
2018-12-02T00:49:22.454Z,8.40
2018-12-02T00:51:53.031Z,8.40
2018-12-02T00:54:23.660Z,8.40
2018-12-02T00:56:54.186Z,8.40
2018-12-02T00:59:24.790Z,8.50
2018-12-02T01:01:55.468Z,8.50
2018-12-02T01:04:25.975Z,8.40
2018-12-02T01:06:56.558Z,8.40
2018-12-02T01:09:27.069Z,8.50
2018-12-02T01:11:57.600Z,8.50
2018-12-02T01:14:28.219Z,8.40
2018-12-02T01:16:59.043Z,8.40
2018-12-02T01:19:29.629Z,8.30
2018-12-02T01:22:00.515Z,8.30
2018-12-02T01:24:31.056Z,8.30
2018-12-02T01:27:01.634Z,8.30
2018-12-02T01:29:32.252Z,8.20
2018-12-02T01:32:03.019Z,8.10
2018-12-02T01:34:34.128Z,8.10
2018-12-02T01:37:04.782Z,8.00
2018-12-02T01:39:35.265Z,8.10
2018-12-02T01:42:05.771Z,8.00
2018-12-02T01:44:36.490Z,8.10
2018-12-02T01:47:07.057Z,8.10
2018-12-02T01:49:37.503Z,8.10
2018-12-02T01:52:08.425Z,8.20
2018-12-02T01:54:38.955Z,8.20
2018-12-02T01:57:09.545Z,8.20
2018-12-02T01:59:40.073Z,8.20
2018-12-02T02:02:10.883Z,8.20
2018-12-02T02:04:41.435Z,8.20
2018-12-02T02:07:12.451Z,8.10
2018-12-02T02:09:43.280Z,8.10
2018-12-02T02:12:13.847Z,8.10
2018-12-02T02:14:44.532Z,8.00
2018-12-02T02:17:15.066Z,8.10
2018-12-02T02:19:45.528Z,8.00
2018-12-02T02:22:16.391Z,8.00
2018-12-02T02:24:46.845Z,7.90
2018-12-02T02:27:17.424Z,7.80
2018-12-02T02:29:47.896Z,7.80
2018-12-02T02:32:18.437Z,7.60
2018-12-02T02:34:49.288Z,7.50
2018-12-02T02:37:19.789Z,7.40
2018-12-02T02:39:50.256Z,7.40
2018-12-02T02:42:21.092Z,7.40
2018-12-02T02:44:51.615Z,7.30
2018-12-02T02:47:22.189Z,7.30
2018-12-02T02:49:52.645Z,7.20
2018-12-02T02:52:23.169Z,7.20
2018-12-02T02:54:53.708Z,7.10
2018-12-02T02:57:24.369Z,7.00
2018-12-02T02:59:54.880Z,6.90
2018-12-02T03:02:25.527Z,6.80
2018-12-02T03:04:56.100Z,6.80
2018-12-02T03:07:26.763Z,6.80
2018-12-02T03:09:57.275Z,6.70
2018-12-02T03:12:27.827Z,6.70
2018-12-02T03:14:58.276Z,6.60
2018-12-02T03:17:28.822Z,6.60
2018-12-02T03:19:59.568Z,6.50
2018-12-02T03:22:30.374Z,6.50
2018-12-02T03:25:00.825Z,6.50
2018-12-02T03:27:31.371Z,6.40
2018-12-02T03:30:01.995Z,6.40
2018-12-02T03:32:32.752Z,6.50
2018-12-02T03:35:03.275Z,6.50
2018-12-02T03:37:33.849Z,6.50
2018-12-02T03:40:04.885Z,6.40
2018-12-02T03:42:35.635Z,6.40
2018-12-02T03:45:07.218Z,6.40
2018-12-02T03:47:37.941Z,6.40
2018-12-02T03:50:19.817Z,6.50
2018-12-02T03:52:50.480Z,6.40
2018-12-02T03:55:21.036Z,6.50
2018-12-02T03:57:51.834Z,6.40
2018-12-02T04:00:25.248Z,6.50
2018-12-02T04:02:56.816Z,6.40
2018-12-02T04:05:27.831Z,6.40
2018-12-02T04:07:58.643Z,6.40
2018-12-02T04:10:29.344Z,6.40
2018-12-02T04:12:59.830Z,6.30
2018-12-02T04:15:30.664Z,6.30
2018-12-02T04:18:01.144Z,6.30
2018-12-02T04:20:31.763Z,6.30
2018-12-02T04:23:02.870Z,6.40
2018-12-02T04:25:33.379Z,6.40
2018-12-02T04:28:04.358Z,6.40
2018-12-02T04:30:34.820Z,6.40
2018-12-02T04:33:05.658Z,6.40
2018-12-02T04:35:36.115Z,6.40
2018-12-02T04:38:06.738Z,6.30
2018-12-02T04:40:37.574Z,6.30
2018-12-02T04:43:08.256Z,6.30
2018-12-02T04:45:38.773Z,6.30
2018-12-02T04:48:09.552Z,6.30
2018-12-02T04:50:40.269Z,6.40
2018-12-02T04:53:10.839Z,6.40
2018-12-02T04:55:41.399Z,6.40
2018-12-02T04:58:12.199Z,6.40
2018-12-02T05:00:42.726Z,6.40
2018-12-02T05:03:13.626Z,6.40
2018-12-02T05:05:44.064Z,6.50
2018-12-02T05:08:14.545Z,6.50
2018-12-02T05:10:45.509Z,6.50
2018-12-02T05:13:16.307Z,6.40
2018-12-02T05:15:46.894Z,6.40
2018-12-02T05:18:17.769Z,6.40
2018-12-02T05:20:48.379Z,6.40
2018-12-02T05:23:18.966Z,6.40
2018-12-02T05:25:49.476Z,6.50
2018-12-02T05:28:20.275Z,6.50
2018-12-02T05:30:51.089Z,6.60
2018-12-02T05:33:21.596Z,6.60
2018-12-02T05:35:52.134Z,6.70
2018-12-02T05:38:22.663Z,6.70
2018-12-02T05:40:53.263Z,6.70
2018-12-02T05:43:23.819Z,6.70
2018-12-02T05:45:54.403Z,6.70
2018-12-02T05:48:25.362Z,6.70
2018-12-02T05:50:55.828Z,6.70
2018-12-02T05:53:26.626Z,6.70
2018-12-02T05:55:57.336Z,6.80
2018-12-02T05:58:27.804Z,6.80
2018-12-02T06:00:58.318Z,6.90
2018-12-02T06:03:28.818Z,6.90
2018-12-02T06:05:59.375Z,6.80
2018-12-02T06:08:29.911Z,6.80
2018-12-02T06:11:00.548Z,6.80
2018-12-02T06:13:31.146Z,6.80
2018-12-02T06:16:01.835Z,7.00
2018-12-02T06:18:32.378Z,7.10
2018-12-02T06:21:03.015Z,7.30
2018-12-02T06:23:33.611Z,7.40
2018-12-02T06:26:04.136Z,7.60
2018-12-02T06:28:34.699Z,7.70
2018-12-02T06:31:05.202Z,8.10
2018-12-02T06:33:35.784Z,8.50
2018-12-02T06:36:06.442Z,8.80
2018-12-02T06:38:37.069Z,9.10
2018-12-02T06:41:07.814Z,9.20
2018-12-02T06:43:38.629Z,9.40
2018-12-02T06:46:09.294Z,9.50
2018-12-02T06:48:39.890Z,9.50
2018-12-02T06:51:10.518Z,9.30
2018-12-02T06:53:41.155Z,9.20
2018-12-02T06:56:19.889Z,9.00
2018-12-02T06:59:12.573Z,8.90
2018-12-02T07:01:46.478Z,8.80
2018-12-02T07:04:23.426Z,8.60
2018-12-02T07:06:53.982Z,8.60
2018-12-02T07:09:24.717Z,8.50
2018-12-02T07:11:55.252Z,8.40
2018-12-02T07:14:25.850Z,8.30
2018-12-02T07:16:56.610Z,8.20
2018-12-02T07:19:32.618Z,8.20
2018-12-02T07:22:08.079Z,8.10
2018-12-02T07:24:41.209Z,8.00
2018-12-02T07:27:13.570Z,8.10
2018-12-02T07:29:44.183Z,8.50
2018-12-02T07:32:15.108Z,8.90
2018-12-02T07:35:00.853Z,9.00
2018-12-02T07:37:49.613Z,9.10
2018-12-02T07:40:39.937Z,9.00
2018-12-02T07:43:12.381Z,9.10
2018-12-02T07:45:43.096Z,9.40
2018-12-02T07:48:13.878Z,10.20
2018-12-02T07:50:44.482Z,10.90
2018-12-02T07:53:19.881Z,11.30
2018-12-02T07:55:50.466Z,11.40
2018-12-02T07:58:21.000Z,11.50
2018-12-02T08:00:52.100Z,11.20
2018-12-02T08:03:22.711Z,11.10
2018-12-02T08:05:53.245Z,11.30
2018-12-02T08:08:23.940Z,11.10
2018-12-02T08:10:54.578Z,11.20
2018-12-02T08:13:25.119Z,11.30
2018-12-02T08:15:57.867Z,11.10
2018-12-02T08:18:28.642Z,11.20
2018-12-02T08:20:59.305Z,11.40
2018-12-02T08:23:31.275Z,11.50
2018-12-02T08:26:01.892Z,11.60
2018-12-02T08:28:32.410Z,12.00
2018-12-02T08:31:02.961Z,12.40
2018-12-02T08:33:33.509Z,12.70
2018-12-02T08:36:04.201Z,12.70
2018-12-02T08:38:34.766Z,13.10
2018-12-02T08:41:06.121Z,13.30
2018-12-02T08:43:36.650Z,12.90
2018-12-02T08:46:08.102Z,12.60
2018-12-02T08:48:38.663Z,12.70
2018-12-02T08:51:09.269Z,12.60
2018-12-02T08:53:40.039Z,12.40
2018-12-02T08:56:10.767Z,12.50
2018-12-02T08:58:41.283Z,12.50
2018-12-02T09:01:12.169Z,12.40
2018-12-02T09:03:43.065Z,12.20
2018-12-02T09:06:13.997Z,12.40
2018-12-02T09:08:44.594Z,12.40
2018-12-02T09:11:15.258Z,12.60
2018-12-02T09:13:45.859Z,12.60
2018-12-02T09:16:16.359Z,12.50
2018-12-02T09:19:04.917Z,12.60
2018-12-02T09:21:37.228Z,12.50
2018-12-02T09:24:07.728Z,12.20
2018-12-02T09:26:38.254Z,12.50
2018-12-02T09:29:08.895Z,12.40
2018-12-02T09:31:39.556Z,12.30
2018-12-02T09:34:10.233Z,13.00
2018-12-02T09:36:41.186Z,13.30
2018-12-02T09:39:11.735Z,13.00
2018-12-02T09:41:42.349Z,13.00
2018-12-02T09:44:13.151Z,13.30
2018-12-02T09:46:43.728Z,13.30
2018-12-02T09:49:14.347Z,13.20
2018-12-02T09:51:45.001Z,13.00
2018-12-02T09:54:15.751Z,13.00
2018-12-02T09:56:46.607Z,13.70
2018-12-02T09:59:17.533Z,14.00
2018-12-02T10:01:48.253Z,14.80
2018-12-02T10:04:18.985Z,15.20
2018-12-02T10:06:49.666Z,15.50
2018-12-02T10:09:20.385Z,15.40
2018-12-02T10:11:51.148Z,15.40
2018-12-02T10:14:22.089Z,15.40
2018-12-02T10:16:52.870Z,15.20
2018-12-02T10:19:23.537Z,15.10
2018-12-02T10:21:54.367Z,14.90
2018-12-02T10:24:25.034Z,14.80
2018-12-02T10:26:55.784Z,15.00
2018-12-02T10:29:26.746Z,14.90
2018-12-02T10:31:57.392Z,15.10
2018-12-02T10:34:27.983Z,14.80
2018-12-02T10:36:58.762Z,14.30
2018-12-02T10:39:29.455Z,14.70
2018-12-02T10:42:00.235Z,14.50
2018-12-02T10:44:31.395Z,14.80
2018-12-02T10:47:02.245Z,14.50
2018-12-02T10:49:32.980Z,14.30
2018-12-02T10:52:03.717Z,14.10
2018-12-02T10:54:34.368Z,14.10
2018-12-02T10:57:05.045Z,13.80
2018-12-02T10:59:35.994Z,13.70
2018-12-02T11:02:13.007Z,13.80
2018-12-02T11:04:43.687Z,13.80
2018-12-02T11:07:14.880Z,13.70
2018-12-02T11:09:45.517Z,13.80
2018-12-02T11:12:16.310Z,13.80
2018-12-02T11:14:47.246Z,13.70
2018-12-02T11:17:17.938Z,13.70
2018-12-02T11:19:48.741Z,13.60
2018-12-02T11:22:19.495Z,13.60
2018-12-02T11:24:50.524Z,13.70
2018-12-02T11:27:21.627Z,13.70
2018-12-02T11:29:52.237Z,13.70
2018-12-02T11:32:23.240Z,13.60
2018-12-02T11:34:54.006Z,13.70
2018-12-02T11:37:24.867Z,13.80
2018-12-02T11:39:55.509Z,13.80
2018-12-02T11:42:26.310Z,13.70
2018-12-02T11:44:57.109Z,13.70
2018-12-02T11:47:27.809Z,13.70
2018-12-02T11:49:58.562Z,13.70
2018-12-02T11:52:29.497Z,13.60
2018-12-02T11:55:00.226Z,13.60
2018-12-02T11:57:30.896Z,13.60
2018-12-02T12:00:02.072Z,13.70
2018-12-02T12:02:32.738Z,13.60
2018-12-02T12:05:03.327Z,13.70
2018-12-02T12:07:34.312Z,13.60
2018-12-02T12:10:05.681Z,13.60
2018-12-02T12:12:36.297Z,13.70
2018-12-02T12:15:09.403Z,13.60
2018-12-02T12:17:40.345Z,13.60
2018-12-02T12:20:20.835Z,13.60
2018-12-02T12:22:51.520Z,13.60
2018-12-02T12:25:22.303Z,13.60
2018-12-02T12:27:54.016Z,13.60
2018-12-02T12:30:26.528Z,13.70
2018-12-02T12:32:57.404Z,13.60
2018-12-02T12:35:28.303Z,13.50
2018-12-02T12:37:58.915Z,13.50
2018-12-02T12:43:44.765Z,13.50
2018-12-02T12:49:17.893Z,13.60
2018-12-02T12:51:48.663Z,13.60
2018-12-02T12:54:19.367Z,13.60
2018-12-02T12:56:50.085Z,13.60
2018-12-02T12:59:20.964Z,13.60
2018-12-02T13:01:51.580Z,13.60
2018-12-02T13:04:22.159Z,13.60
2018-12-02T13:06:53.583Z,13.60
2018-12-02T13:09:25.830Z,13.60
2018-12-02T13:11:56.574Z,13.50
2018-12-02T13:14:28.466Z,13.40
2018-12-02T13:16:59.466Z,13.50
2018-12-02T13:19:32.461Z,13.50
2018-12-02T13:22:04.316Z,13.40
2018-12-02T13:24:36.195Z,13.30
2018-12-02T13:27:08.253Z,13.30
2018-12-02T13:29:41.262Z,13.20
2018-12-02T13:32:13.501Z,13.20
2018-12-02T13:34:45.490Z,13.10
2018-12-02T13:37:17.507Z,13.10
2018-12-02T13:39:50.386Z,13.00
2018-12-02T13:42:21.642Z,12.90
2018-12-02T13:44:53.578Z,12.80
2018-12-02T13:47:24.726Z,12.70
2018-12-02T13:49:57.318Z,12.70
2018-12-02T13:52:29.479Z,12.70
2018-12-02T13:55:01.305Z,12.70
2018-12-02T13:57:33.238Z,12.70
2018-12-02T14:00:06.457Z,12.60
2018-12-02T14:02:38.596Z,12.60
2018-12-02T14:05:11.165Z,12.50
2018-12-02T14:07:42.315Z,12.50
2018-12-02T14:10:14.804Z,12.40
2018-12-02T14:12:49.305Z,12.30
2018-12-02T14:15:27.094Z,12.20
2018-12-02T14:18:09.017Z,12.10
2018-12-02T14:20:40.496Z,12.00
2018-12-02T14:23:12.202Z,11.90
2018-12-02T14:25:44.453Z,11.80
2018-12-02T14:28:18.812Z,11.80
2018-12-02T14:30:50.910Z,11.70
2018-12-02T14:33:23.417Z,11.60
2018-12-02T14:35:55.791Z,11.50
2018-12-02T14:38:27.675Z,11.40
2018-12-02T14:40:59.204Z,11.40
2018-12-02T14:43:31.162Z,11.30
2018-12-02T14:46:02.998Z,11.20
2018-12-02T14:48:35.155Z,11.20
2018-12-02T14:51:10.627Z,11.10
2018-12-02T14:53:43.055Z,11.10
2018-12-02T14:56:15.099Z,11.00
2018-12-02T14:58:45.956Z,10.90
2018-12-02T15:01:16.839Z,10.90
2018-12-02T15:03:47.463Z,10.90
2018-12-02T15:06:18.037Z,10.90
2018-12-02T15:08:51.552Z,10.80
2018-12-02T15:11:22.189Z,10.80
2018-12-02T15:13:53.210Z,10.70
2018-12-02T15:16:24.218Z,10.60
2018-12-02T15:18:54.802Z,10.60
2018-12-02T15:21:25.759Z,10.60
2018-12-02T15:23:56.831Z,10.50
2018-12-02T15:26:27.435Z,10.50
2018-12-02T15:28:58.142Z,10.40
2018-12-02T15:31:28.930Z,10.40
2018-12-02T15:34:00.324Z,10.40
2018-12-02T15:36:31.081Z,10.30
2018-12-02T15:39:01.729Z,10.30
2018-12-02T15:41:32.640Z,10.30
2018-12-02T15:44:03.309Z,10.30
2018-12-02T15:46:34.049Z,10.20
2018-12-02T15:49:04.676Z,10.20
2018-12-02T15:51:35.184Z,10.10
2018-12-02T15:54:06.099Z,10.00
2018-12-02T15:56:36.803Z,9.90
2018-12-02T15:59:09.472Z,9.90
2018-12-02T16:01:40.124Z,9.80
2018-12-02T16:04:11.365Z,9.70
2018-12-02T16:06:42.150Z,9.70
2018-12-02T16:09:13.039Z,9.60
2018-12-02T16:11:43.662Z,9.50
2018-12-02T16:14:14.672Z,9.50
2018-12-02T16:16:45.266Z,9.40
2018-12-02T16:19:15.987Z,9.70
2018-12-02T16:21:46.629Z,9.20
2018-12-02T16:24:17.170Z,9.10
2018-12-02T16:26:48.189Z,8.90
2018-12-02T16:29:19.771Z,8.90
2018-12-02T16:31:50.672Z,8.90
2018-12-02T16:34:21.647Z,8.80
2018-12-02T16:36:51.955Z,8.80
2018-12-02T16:39:22.484Z,8.80
2018-12-02T16:41:53.192Z,8.80
2018-12-02T16:44:23.725Z,8.70
2018-12-02T16:46:54.549Z,8.70
2018-12-02T16:49:25.142Z,8.60
2018-12-02T16:51:55.897Z,8.50
2018-12-02T16:54:26.436Z,8.40
2018-12-02T16:56:57.305Z,8.30
2018-12-02T16:59:30.430Z,8.20
2018-12-02T17:02:05.255Z,8.20
2018-12-02T17:04:34.894Z,8.20
2018-12-02T17:07:05.904Z,8.20
2018-12-02T17:09:36.560Z,8.10
2018-12-02T17:12:07.859Z,8.10
2018-12-02T17:14:39.030Z,8.10
2018-12-02T17:17:09.881Z,8.00
2018-12-02T17:19:40.588Z,7.90
2018-12-02T17:22:11.434Z,7.90
2018-12-02T17:24:42.130Z,7.70
2018-12-02T17:27:12.987Z,7.60
2018-12-02T17:29:43.535Z,7.60
2018-12-02T17:32:14.436Z,7.60
2018-12-02T17:34:45.283Z,7.60
2018-12-02T17:37:16.204Z,7.40
2018-12-02T17:39:52.191Z,7.40
2018-12-02T17:42:22.782Z,7.20
2018-12-02T17:44:53.801Z,7.20
2018-12-02T17:47:24.538Z,7.10
2018-12-02T17:49:55.450Z,7.10
2018-12-02T17:52:26.174Z,7.00
2018-12-02T17:54:56.729Z,7.00
2018-12-02T17:57:27.512Z,7.00
2018-12-02T17:59:58.253Z,6.90
2018-12-02T18:02:29.288Z,6.90
2018-12-02T18:04:59.908Z,6.80
2018-12-02T18:07:30.721Z,6.80
2018-12-02T18:10:01.288Z,6.80
2018-12-02T18:12:32.204Z,6.80
2018-12-02T18:15:03.131Z,6.80
2018-12-02T18:17:34.085Z,6.80
2018-12-02T18:20:05.565Z,6.80
2018-12-02T18:22:36.406Z,6.80
2018-12-02T18:25:09.512Z,6.90
2018-12-02T18:27:40.865Z,6.90
2018-12-02T18:30:27.909Z,6.90
2018-12-02T18:33:00.688Z,7.00
2018-12-02T18:36:07.245Z,7.00
2018-12-02T18:38:44.582Z,7.10
2018-12-02T18:41:25.481Z,7.10
2018-12-02T18:43:56.354Z,7.10
2018-12-02T18:46:27.222Z,7.20
2018-12-02T18:48:58.114Z,7.20
2018-12-02T18:51:29.004Z,7.20
2018-12-02T18:54:00.039Z,7.20
2018-12-02T18:56:30.788Z,7.10
2018-12-02T18:59:01.523Z,7.20
2018-12-02T19:01:32.190Z,7.20
2018-12-02T19:04:03.031Z,7.20
2018-12-02T19:06:33.631Z,7.20
2018-12-02T19:09:05.482Z,7.30
2018-12-02T19:11:36.452Z,7.30
2018-12-02T19:14:07.259Z,7.30
2018-12-02T19:16:37.970Z,7.30
2018-12-02T19:19:09.697Z,7.30
2018-12-02T19:21:40.611Z,7.30
2018-12-02T19:24:11.842Z,7.20
2018-12-02T19:26:42.649Z,7.10
2018-12-02T19:29:13.703Z,7.10
2018-12-02T19:31:44.331Z,7.10
2018-12-02T19:34:15.316Z,7.10
2018-12-02T19:36:54.720Z,7.10
2018-12-02T19:39:25.560Z,7.10
2018-12-02T19:41:56.293Z,7.10
2018-12-02T19:44:26.834Z,7.10
2018-12-02T19:46:58.152Z,7.00
2018-12-02T19:49:28.770Z,7.00
2018-12-02T19:51:59.430Z,7.00
2018-12-02T19:54:30.014Z,7.00
2018-12-02T19:57:00.719Z,6.90
2018-12-02T19:59:31.253Z,6.80
2018-12-02T20:02:01.908Z,6.80
2018-12-02T20:04:32.575Z,6.90
2018-12-02T20:07:03.441Z,6.90
2018-12-02T20:09:34.176Z,6.80
2018-12-02T20:12:04.811Z,6.80
2018-12-02T20:14:35.624Z,6.80
2018-12-02T20:17:06.324Z,6.80
2018-12-02T20:19:49.147Z,6.80
2018-12-02T20:22:22.981Z,6.80
2018-12-02T20:24:54.075Z,6.90
2018-12-02T20:27:25.498Z,6.90
2018-12-02T20:29:56.915Z,6.90
2018-12-02T20:32:29.707Z,6.90
2018-12-02T20:35:00.870Z,6.90
2018-12-02T20:37:32.473Z,6.90
2018-12-02T20:40:03.876Z,6.90
2018-12-02T20:42:35.610Z,6.90
2018-12-02T20:45:08.479Z,6.90
2018-12-02T20:47:39.523Z,6.90
2018-12-02T20:50:15.362Z,6.90
2018-12-02T20:52:47.175Z,6.80
2018-12-02T20:55:23.788Z,6.80
2018-12-02T20:57:59.023Z,6.80
2018-12-02T21:00:30.963Z,6.90
2018-12-02T21:03:36.162Z,6.80
2018-12-02T21:06:13.107Z,6.70
2018-12-02T21:08:44.324Z,6.60
2018-12-02T21:11:17.167Z,6.60
2018-12-02T21:13:49.073Z,6.50
2018-12-02T21:16:20.295Z,6.40
2018-12-02T21:18:54.686Z,6.30
2018-12-02T21:21:28.265Z,6.30
2018-12-02T21:23:59.789Z,6.30
2018-12-02T21:26:30.591Z,6.30
2018-12-02T21:29:01.136Z,6.30
2018-12-02T21:31:32.651Z,6.40
2018-12-02T21:34:02.641Z,6.30
2018-12-02T21:36:33.292Z,6.30
2018-12-02T21:42:03.700Z,6.30
2018-12-02T21:44:37.339Z,6.30
2018-12-02T21:47:10.439Z,6.30
2018-12-02T21:49:44.605Z,6.30
2018-12-02T21:52:15.293Z,6.30
2018-12-02T21:54:46.455Z,6.30
2018-12-02T21:57:20.075Z,6.30
2018-12-02T21:59:52.575Z,6.40
2018-12-02T22:02:23.103Z,6.40
2018-12-02T22:04:53.608Z,6.40
2018-12-02T22:07:24.219Z,6.40
2018-12-02T22:09:54.667Z,6.40
2018-12-02T22:12:25.579Z,6.40
2018-12-02T22:14:56.294Z,6.40
2018-12-02T22:17:26.882Z,6.40
2018-12-02T22:19:57.431Z,6.40
2018-12-02T22:22:28.160Z,6.40
2018-12-02T22:24:58.683Z,6.40
2018-12-02T22:27:29.307Z,6.40
2018-12-02T22:29:59.917Z,6.50
2018-12-02T22:32:30.427Z,6.50
2018-12-02T22:35:00.944Z,6.50
2018-12-02T22:37:31.707Z,6.60
2018-12-02T22:40:02.243Z,6.60
2018-12-02T22:42:32.966Z,6.60
2018-12-02T22:45:03.600Z,6.60
2018-12-02T22:47:34.252Z,6.60
2018-12-02T22:50:05.049Z,6.60
2018-12-02T22:52:35.719Z,6.60
2018-12-02T22:55:07.440Z,6.50
2018-12-02T22:57:38.150Z,6.50
2018-12-02T23:00:33.543Z,6.40
2018-12-02T23:03:06.228Z,6.40
2018-12-02T23:05:36.750Z,6.30
2018-12-02T23:08:07.893Z,6.10
2018-12-02T23:10:38.638Z,6.20
2018-12-02T23:13:10.288Z,6.20
2018-12-02T23:15:42.517Z,6.10
2018-12-02T23:18:14.042Z,6.00
2018-12-02T23:20:44.632Z,5.90
2018-12-02T23:23:15.200Z,5.90
2018-12-02T23:25:45.758Z,6.00
2018-12-02T23:28:16.308Z,6.10
2018-12-02T23:30:47.049Z,6.20
2018-12-02T23:33:17.589Z,6.10
2018-12-02T23:35:48.400Z,6.10
2018-12-02T23:38:18.888Z,6.10
2018-12-02T23:40:49.670Z,6.10
2018-12-02T23:43:20.314Z,6.00
2018-12-02T23:45:50.901Z,6.00
2018-12-02T23:48:21.608Z,6.00
2018-12-02T23:50:52.208Z,5.90
2018-12-02T23:53:22.730Z,5.90
2018-12-02T23:55:53.332Z,5.90
2018-12-02T23:58:24.085Z,5.90
